createdAt,value
2017-07-29T00:00:20.037Z,14.60
2017-07-29T00:02:47.677Z,14.50
2017-07-29T00:05:15.337Z,14.60
2017-07-29T00:07:42.965Z,14.60
2017-07-29T00:10:10.630Z,14.60
2017-07-29T00:12:38.262Z,14.60
2017-07-29T00:15:05.934Z,14.60
2017-07-29T00:17:33.593Z,14.60
2017-07-29T00:20:01.994Z,14.60
2017-07-29T00:22:29.705Z,14.50
2017-07-29T00:24:58.109Z,14.60
2017-07-29T00:27:25.743Z,14.60
2017-07-29T00:29:53.411Z,14.60
2017-07-29T00:32:21.048Z,14.60
2017-07-29T00:34:48.711Z,14.60
2017-07-29T00:37:16.334Z,14.60
2017-07-29T00:39:43.970Z,14.60
2017-07-29T00:42:11.640Z,14.60
2017-07-29T00:44:39.273Z,14.60
2017-07-29T00:47:06.931Z,14.60
2017-07-29T00:49:34.560Z,14.60
2017-07-29T00:52:02.203Z,14.60
2017-07-29T00:54:29.873Z,14.60
2017-07-29T00:56:57.972Z,14.60
2017-07-29T00:59:25.632Z,14.70
2017-07-29T01:01:54.027Z,14.70
2017-07-29T01:04:21.655Z,14.70
2017-07-29T01:06:49.312Z,14.70
2017-07-29T01:09:16.946Z,14.80
2017-07-29T01:11:44.601Z,14.80
2017-07-29T01:14:12.224Z,14.80
2017-07-29T01:16:39.853Z,14.80
2017-07-29T01:19:07.519Z,14.80
2017-07-29T01:21:35.918Z,14.90
2017-07-29T01:24:03.580Z,14.80
2017-07-29T01:26:31.220Z,15.00
2017-07-29T01:28:58.859Z,14.90
2017-07-29T01:31:26.518Z,15.00
2017-07-29T01:33:54.134Z,15.00
2017-07-29T01:36:21.813Z,15.00
2017-07-29T01:38:49.454Z,15.10
2017-07-29T01:41:17.080Z,15.10
2017-07-29T01:43:44.730Z,15.20
2017-07-29T01:46:12.365Z,15.20
2017-07-29T01:48:40.024Z,15.20
2017-07-29T01:51:07.653Z,15.30
2017-07-29T01:53:36.046Z,15.30
2017-07-29T01:56:03.718Z,15.30
2017-07-29T01:58:31.339Z,15.40
2017-07-29T02:00:59.000Z,15.40
2017-07-29T02:03:26.637Z,15.40
2017-07-29T02:05:54.280Z,15.40
2017-07-29T02:08:21.934Z,15.30
2017-07-29T02:10:49.574Z,15.30
2017-07-29T02:13:17.240Z,15.30
2017-07-29T02:15:44.868Z,15.40
2017-07-29T02:18:12.507Z,15.30
2017-07-29T02:20:40.167Z,15.30
2017-07-29T02:23:07.795Z,15.30
2017-07-29T02:25:35.466Z,15.30
2017-07-29T02:28:03.098Z,15.30
2017-07-29T02:30:30.730Z,15.30
2017-07-29T02:32:58.410Z,15.30
2017-07-29T02:35:26.062Z,15.30
2017-07-29T02:37:53.719Z,15.30
2017-07-29T02:40:21.357Z,15.30
2017-07-29T02:42:48.987Z,15.30
2017-07-29T02:45:16.651Z,15.30
2017-07-29T02:47:44.300Z,15.20
2017-07-29T02:50:11.969Z,15.20
2017-07-29T02:52:39.595Z,15.20
2017-07-29T02:55:07.231Z,15.20
2017-07-29T02:57:34.888Z,15.10
2017-07-29T03:00:02.555Z,15.10
2017-07-29T03:02:30.214Z,15.10
2017-07-29T03:04:59.387Z,15.10
2017-07-29T03:07:28.042Z,15.20
2017-07-29T03:09:55.744Z,15.10
2017-07-29T03:12:23.374Z,15.20
2017-07-29T03:14:51.039Z,15.20
2017-07-29T03:17:18.665Z,15.20
2017-07-29T03:19:46.397Z,15.20
2017-07-29T03:22:14.052Z,15.10
2017-07-29T03:24:42.444Z,15.20
2017-07-29T03:27:10.114Z,15.10
2017-07-29T03:29:37.753Z,15.20
2017-07-29T03:32:05.371Z,15.20
2017-07-29T03:34:33.045Z,15.20
2017-07-29T03:37:01.401Z,15.30
2017-07-29T03:39:29.067Z,15.40
2017-07-29T03:41:56.698Z,15.30
2017-07-29T03:44:24.342Z,15.40
2017-07-29T03:46:52.332Z,15.40
2017-07-29T03:49:19.972Z,15.40
2017-07-29T03:51:47.633Z,15.50
2017-07-29T03:54:15.264Z,15.60
2017-07-29T03:56:42.901Z,15.60
2017-07-29T03:59:10.569Z,15.60
2017-07-29T04:01:38.204Z,15.70
2017-07-29T04:04:05.879Z,15.70
2017-07-29T04:06:34.286Z,15.90
2017-07-29T04:09:01.923Z,15.80
2017-07-29T04:11:29.588Z,16.00
2017-07-29T04:13:57.218Z,16.10
2017-07-29T04:16:24.902Z,16.20
2017-07-29T04:18:52.543Z,16.30
2017-07-29T04:21:20.180Z,16.40
2017-07-29T04:23:47.849Z,16.40
2017-07-29T04:26:15.474Z,16.40
2017-07-29T04:28:43.135Z,16.40
2017-07-29T04:31:10.764Z,16.50
2017-07-29T04:33:38.383Z,16.50
2017-07-29T04:36:06.062Z,16.50
2017-07-29T04:38:33.691Z,16.70
2017-07-29T04:41:01.355Z,16.60
2017-07-29T04:43:28.988Z,16.70
2017-07-29T04:45:56.628Z,16.70
2017-07-29T04:48:24.300Z,16.80
2017-07-29T04:50:51.939Z,16.90
2017-07-29T04:53:19.596Z,16.90
2017-07-29T04:55:47.218Z,17.00
2017-07-29T04:58:14.852Z,17.00
2017-07-29T05:00:42.544Z,17.20
2017-07-29T05:03:10.181Z,17.30
2017-07-29T05:05:37.858Z,17.50
2017-07-29T05:08:05.506Z,17.60
2017-07-29T05:10:33.915Z,17.80
2017-07-29T05:13:01.588Z,17.80
2017-07-29T05:15:29.220Z,17.80
2017-07-29T05:17:56.909Z,17.90
2017-07-29T05:20:25.304Z,18.20
2017-07-29T05:22:52.946Z,18.20
2017-07-29T05:25:20.604Z,18.20
2017-07-29T05:27:48.243Z,18.20
2017-07-29T05:30:15.928Z,18.20
2017-07-29T05:32:43.564Z,18.40
2017-07-29T05:35:11.198Z,18.40
2017-07-29T05:37:38.884Z,18.40
2017-07-29T05:40:06.528Z,18.40
2017-07-29T05:42:34.175Z,18.80
2017-07-29T05:45:01.825Z,18.90
2017-07-29T05:47:29.453Z,18.90
2017-07-29T05:49:57.129Z,19.10
2017-07-29T05:52:24.744Z,19.10
2017-07-29T05:54:52.385Z,19.10
2017-07-29T05:57:20.016Z,19.00
2017-07-29T05:59:48.417Z,19.20
2017-07-29T06:02:16.052Z,19.20
2017-07-29T06:04:43.656Z,19.60
2017-07-29T06:07:12.055Z,20.00
2017-07-29T06:09:39.659Z,19.90
2017-07-29T06:12:07.269Z,20.10
2017-07-29T06:14:34.912Z,20.40
2017-07-29T06:17:02.531Z,20.50
2017-07-29T06:19:30.189Z,20.60
2017-07-29T06:21:57.798Z,20.70
2017-07-29T06:24:26.170Z,20.60
2017-07-29T06:26:54.576Z,20.50
2017-07-29T06:29:22.199Z,20.40
2017-07-29T06:31:49.838Z,20.20
2017-07-29T06:34:17.501Z,20.20
2017-07-29T06:36:45.120Z,20.20
2017-07-29T06:39:12.779Z,20.10
2017-07-29T06:41:40.397Z,20.80
2017-07-29T06:44:08.045Z,22.30
2017-07-29T06:46:35.669Z,23.50
2017-07-29T06:49:03.273Z,24.10
2017-07-29T06:51:31.042Z,24.60
2017-07-29T06:53:58.846Z,24.90
2017-07-29T06:56:27.696Z,26.60
2017-07-29T06:58:55.303Z,26.50
2017-07-29T07:01:22.908Z,27.50
2017-07-29T07:03:51.317Z,27.60
2017-07-29T07:06:18.928Z,27.50
2017-07-29T07:08:47.536Z,26.90
2017-07-29T07:11:15.176Z,26.80
2017-07-29T07:13:43.618Z,27.80
2017-07-29T07:16:12.064Z,28.60
2017-07-29T07:18:40.515Z,28.60
2017-07-29T07:21:08.147Z,28.60
2017-07-29T07:23:35.755Z,28.90
2017-07-29T07:26:03.382Z,29.10
2017-07-29T07:28:31.327Z,29.30
2017-07-29T07:30:59.748Z,29.60
2017-07-29T07:33:27.400Z,29.50
2017-07-29T07:35:55.058Z,29.80
2017-07-29T07:38:22.962Z,29.00
2017-07-29T07:40:50.603Z,29.10
2017-07-29T07:43:18.293Z,29.70
2017-07-29T07:45:45.945Z,29.60
2017-07-29T07:48:13.557Z,29.50
2017-07-29T07:50:41.206Z,29.50
2017-07-29T07:53:08.851Z,30.10
2017-07-29T07:55:36.465Z,29.80
2017-07-29T07:58:04.876Z,29.50
2017-07-29T08:00:32.495Z,29.60
2017-07-29T08:03:00.110Z,30.60
2017-07-29T08:05:28.564Z,29.60
2017-07-29T08:07:56.172Z,29.60
2017-07-29T08:10:23.808Z,30.20
2017-07-29T08:12:51.416Z,30.90
2017-07-29T08:15:19.789Z,30.30
2017-07-29T08:17:47.432Z,30.40
2017-07-29T08:20:15.802Z,31.40
2017-07-29T08:22:44.224Z,31.70
2017-07-29T08:25:11.841Z,31.50
2017-07-29T08:27:39.440Z,30.80
2017-07-29T08:30:07.868Z,29.20
2017-07-29T08:32:35.513Z,29.10
2017-07-29T08:35:03.161Z,29.80
2017-07-29T08:37:30.797Z,30.80
2017-07-29T08:39:58.409Z,30.40
2017-07-29T08:42:26.039Z,29.80
2017-07-29T08:44:54.413Z,29.10
2017-07-29T08:47:22.105Z,29.00
2017-07-29T08:49:49.721Z,28.90
2017-07-29T08:52:17.337Z,28.30
2017-07-29T08:54:45.042Z,28.40
2017-07-29T08:57:12.652Z,28.90
2017-07-29T08:59:41.052Z,28.30
2017-07-29T09:02:08.660Z,28.20
2017-07-29T09:04:36.291Z,27.70
2017-07-29T09:07:03.960Z,27.50
2017-07-29T09:09:31.590Z,27.30
2017-07-29T09:11:59.240Z,27.20
2017-07-29T09:14:27.644Z,27.40
2017-07-29T09:16:55.251Z,27.40
2017-07-29T09:19:23.752Z,28.50
2017-07-29T09:21:51.364Z,28.40
2017-07-29T09:24:19.772Z,30.50
2017-07-29T09:26:47.401Z,30.40
2017-07-29T09:29:15.016Z,30.50
2017-07-29T09:31:42.652Z,30.00
2017-07-29T09:34:10.266Z,28.90
2017-07-29T09:36:37.920Z,28.20
2017-07-29T09:39:05.556Z,28.70
2017-07-29T09:41:33.158Z,28.60
2017-07-29T09:44:00.756Z,28.10
2017-07-29T09:46:28.574Z,27.50
2017-07-29T09:48:56.186Z,27.00
2017-07-29T09:51:24.561Z,26.70
2017-07-29T09:53:52.190Z,26.60
2017-07-29T09:56:19.800Z,26.70
2017-07-29T09:58:47.407Z,26.60
2017-07-29T10:01:15.048Z,26.30
2017-07-29T10:03:42.777Z,26.10
2017-07-29T10:06:10.460Z,26.00
2017-07-29T10:08:38.166Z,26.10
2017-07-29T10:11:05.828Z,26.10
2017-07-29T10:13:34.188Z,26.10
2017-07-29T10:16:02.613Z,25.90
2017-07-29T10:18:30.285Z,25.80
2017-07-29T10:20:58.028Z,25.70
2017-07-29T10:23:25.681Z,25.60
2017-07-29T10:25:53.313Z,25.50
2017-07-29T10:28:20.998Z,25.40
2017-07-29T10:30:49.421Z,25.00
2017-07-29T10:33:17.198Z,25.00
2017-07-29T10:35:45.652Z,24.60
2017-07-29T10:38:13.289Z,24.50
2017-07-29T10:40:42.190Z,24.40
2017-07-29T10:43:09.877Z,24.20
2017-07-29T10:45:37.503Z,24.10
2017-07-29T10:48:05.299Z,24.00
2017-07-29T10:50:32.924Z,24.00
2017-07-29T10:53:00.689Z,23.90
2017-07-29T10:55:28.308Z,23.80
2017-07-29T10:57:55.952Z,23.90
2017-07-29T11:00:23.666Z,24.00
2017-07-29T11:02:52.060Z,24.00
2017-07-29T11:05:19.747Z,24.00
2017-07-29T11:07:47.472Z,24.10
2017-07-29T11:10:15.097Z,24.10
2017-07-29T11:12:42.747Z,24.20
2017-07-29T11:15:10.392Z,24.30
2017-07-29T11:17:38.027Z,24.40
2017-07-29T11:20:05.773Z,24.60
2017-07-29T11:22:33.615Z,24.70
2017-07-29T11:25:02.113Z,24.90
2017-07-29T11:27:30.841Z,24.90
2017-07-29T11:29:58.528Z,25.00
2017-07-29T11:32:26.159Z,25.10
2017-07-29T11:34:53.792Z,25.20
2017-07-29T11:37:22.213Z,25.30
2017-07-29T11:39:49.798Z,25.30
2017-07-29T11:42:17.391Z,25.60
2017-07-29T11:44:45.031Z,25.80
2017-07-29T11:47:12.648Z,25.90
2017-07-29T11:49:41.181Z,26.20
2017-07-29T11:52:08.811Z,26.10
2017-07-29T11:54:36.414Z,26.60
2017-07-29T11:57:04.040Z,26.70
2017-07-29T11:59:32.450Z,26.50
2017-07-29T12:02:00.077Z,26.40
2017-07-29T12:04:27.704Z,26.10
2017-07-29T12:06:56.131Z,26.00
2017-07-29T12:09:23.832Z,26.00
2017-07-29T12:11:51.504Z,26.00
2017-07-29T12:14:19.131Z,26.20
2017-07-29T12:16:46.749Z,26.30
2017-07-29T12:19:15.137Z,26.70
2017-07-29T12:21:42.824Z,26.60
2017-07-29T12:24:10.452Z,26.80
2017-07-29T12:26:38.071Z,26.70
2017-07-29T12:29:05.726Z,26.90
2017-07-29T12:31:33.340Z,26.90
2017-07-29T12:34:00.992Z,26.80
2017-07-29T12:36:28.638Z,26.90
2017-07-29T12:38:56.260Z,26.90
2017-07-29T12:41:23.889Z,26.80
2017-07-29T12:43:51.558Z,26.80
2017-07-29T12:46:19.940Z,26.70
2017-07-29T12:48:47.662Z,26.70
2017-07-29T12:51:15.325Z,26.50
2017-07-29T12:53:42.959Z,26.40
2017-07-29T12:56:11.351Z,26.10
2017-07-29T12:58:39.942Z,26.00
2017-07-29T13:01:07.776Z,25.90
2017-07-29T13:03:36.148Z,25.80
2017-07-29T13:06:03.961Z,25.70
2017-07-29T13:08:31.752Z,26.00
2017-07-29T13:10:59.897Z,26.10
2017-07-29T13:13:27.831Z,26.30
2017-07-29T13:15:55.444Z,26.10
2017-07-29T13:18:23.073Z,26.00
2017-07-29T13:20:50.722Z,25.90
2017-07-29T13:23:18.376Z,25.80
2017-07-29T13:25:46.103Z,25.70
2017-07-29T13:28:13.940Z,25.80
2017-07-29T13:30:41.568Z,26.00
2017-07-29T13:33:09.287Z,26.20
2017-07-29T13:35:36.956Z,26.50
2017-07-29T13:38:05.453Z,26.30
2017-07-29T13:40:33.110Z,26.30
2017-07-29T13:43:00.770Z,26.10
2017-07-29T13:45:28.460Z,26.10
2017-07-29T13:47:56.070Z,26.00
2017-07-29T13:50:23.746Z,26.00
2017-07-29T13:52:51.436Z,26.20
2017-07-29T13:55:19.081Z,26.50
2017-07-29T13:57:47.485Z,26.70
2017-07-29T14:00:15.104Z,26.70
2017-07-29T14:02:42.708Z,26.70
2017-07-29T14:05:10.761Z,26.70
2017-07-29T14:07:38.408Z,26.60
2017-07-29T14:10:06.051Z,26.70
2017-07-29T14:12:33.720Z,26.70
2017-07-29T14:15:01.379Z,26.80
2017-07-29T14:17:29.008Z,26.70
2017-07-29T14:19:56.720Z,26.50
2017-07-29T14:22:24.337Z,26.60
2017-07-29T14:24:51.975Z,26.70
2017-07-29T14:27:19.632Z,26.70
2017-07-29T14:29:47.244Z,26.80
2017-07-29T14:32:16.259Z,27.20
2017-07-29T14:34:43.876Z,27.10
2017-07-29T14:37:12.318Z,27.50
2017-07-29T14:39:39.940Z,27.50
2017-07-29T14:42:07.634Z,27.40
2017-07-29T14:44:38.845Z,27.50
2017-07-29T14:47:17.634Z,27.50
2017-07-29T14:49:46.323Z,27.40
2017-07-29T14:52:14.570Z,27.30
2017-07-29T14:54:43.652Z,27.20
2017-07-29T14:57:12.430Z,27.00
2017-07-29T14:59:41.361Z,26.90
2017-07-29T15:02:10.205Z,26.90
2017-07-29T15:04:38.634Z,26.90
2017-07-29T15:07:07.710Z,26.80
2017-07-29T15:09:35.359Z,26.80
2017-07-29T15:12:02.996Z,26.70
2017-07-29T15:14:30.663Z,26.60
2017-07-29T15:16:59.171Z,26.80
2017-07-29T15:19:26.792Z,26.70
2017-07-29T15:21:54.518Z,26.70
2017-07-29T15:24:22.144Z,26.70
2017-07-29T15:26:49.788Z,26.70
2017-07-29T15:29:17.392Z,26.70
2017-07-29T15:31:46.879Z,26.60
2017-07-29T15:34:16.312Z,26.50
2017-07-29T15:36:47.092Z,26.50
2017-07-29T15:39:16.145Z,26.50
2017-07-29T15:41:46.406Z,26.40
2017-07-29T15:44:17.327Z,26.30
2017-07-29T15:46:45.986Z,26.20
2017-07-29T15:49:17.591Z,26.20
2017-07-29T15:51:46.029Z,26.10
2017-07-29T15:54:15.627Z,26.00
2017-07-29T15:56:45.572Z,25.90
2017-07-29T15:59:14.536Z,26.00
2017-07-29T16:01:44.525Z,25.90
2017-07-29T16:04:13.906Z,25.80
2017-07-29T16:06:41.795Z,25.90
2017-07-29T16:09:10.404Z,25.90
2017-07-29T16:11:38.368Z,25.90
2017-07-29T16:14:06.645Z,25.90
2017-07-29T16:16:34.867Z,25.90
2017-07-29T16:19:03.561Z,26.00
2017-07-29T16:21:33.095Z,26.00
2017-07-29T16:24:03.227Z,25.90
2017-07-29T16:26:33.266Z,25.80
2017-07-29T16:29:02.118Z,25.80
2017-07-29T16:31:30.905Z,25.70
2017-07-29T16:33:59.370Z,25.70
2017-07-29T16:36:29.102Z,25.60
2017-07-29T16:38:58.860Z,25.50
2017-07-29T16:41:31.115Z,25.40
2017-07-29T16:43:59.700Z,25.30
2017-07-29T16:46:29.450Z,25.30
2017-07-29T16:49:01.605Z,25.20
2017-07-29T16:51:30.919Z,25.10
2017-07-29T16:54:04.336Z,25.10
2017-07-29T16:56:34.439Z,25.10
2017-07-29T16:59:02.893Z,25.10
2017-07-29T17:01:33.983Z,25.10
2017-07-29T17:04:02.885Z,25.00
2017-07-29T17:06:32.669Z,25.00
2017-07-29T17:09:02.452Z,24.90
2017-07-29T17:11:30.216Z,24.80
2017-07-29T17:13:57.865Z,24.80
2017-07-29T17:16:25.732Z,24.80
2017-07-29T17:18:54.349Z,24.60
2017-07-29T17:21:22.011Z,24.50
2017-07-29T17:23:49.671Z,24.50
2017-07-29T17:26:17.306Z,24.50
2017-07-29T17:28:44.967Z,24.50
2017-07-29T17:31:12.737Z,24.40
2017-07-29T17:33:40.426Z,24.40
2017-07-29T17:36:08.099Z,24.30
2017-07-29T17:38:35.737Z,24.20
2017-07-29T17:41:03.375Z,24.10
2017-07-29T17:43:30.982Z,24.00
2017-07-29T17:45:58.751Z,24.00
2017-07-29T17:48:26.465Z,23.90
2017-07-29T17:50:54.073Z,23.80
2017-07-29T17:55:59.805Z,23.70
2017-07-29T17:58:27.436Z,23.60
2017-07-29T18:00:55.043Z,23.50
2017-07-29T18:03:22.647Z,23.40
2017-07-29T18:05:50.308Z,23.30
2017-07-29T18:08:17.923Z,23.20
2017-07-29T18:10:45.635Z,23.20
2017-07-29T18:13:14.076Z,23.00
2017-07-29T18:15:42.537Z,23.00
2017-07-29T18:18:10.193Z,22.90
2017-07-29T18:20:37.926Z,22.90
2017-07-29T18:23:05.668Z,22.80
2017-07-29T18:25:33.302Z,22.70
2017-07-29T18:28:00.977Z,22.60
2017-07-29T18:30:29.424Z,22.30
2017-07-29T18:32:57.071Z,22.30
2017-07-29T18:35:24.817Z,22.20
2017-07-29T18:37:52.431Z,22.10
2017-07-29T18:40:20.086Z,22.10
2017-07-29T18:42:47.742Z,22.00
2017-07-29T18:45:15.405Z,22.00
2017-07-29T18:47:43.182Z,21.80
2017-07-29T18:50:10.821Z,21.70
2017-07-29T18:52:38.465Z,21.60
2017-07-29T18:55:06.105Z,21.50
2017-07-29T18:57:33.808Z,21.40
2017-07-29T19:00:01.475Z,21.40
2017-07-29T19:02:29.145Z,21.30
2017-07-29T19:04:56.816Z,21.20
2017-07-29T19:07:25.237Z,21.00
2017-07-29T19:09:52.853Z,21.00
2017-07-29T19:12:20.492Z,20.90
2017-07-29T19:14:49.500Z,20.70
2017-07-29T19:17:17.991Z,20.60
2017-07-29T19:19:45.646Z,20.60
2017-07-29T19:22:13.265Z,20.60
2017-07-29T19:24:40.913Z,20.60
2017-07-29T19:27:08.530Z,20.50
2017-07-29T19:29:36.313Z,20.40
2017-07-29T19:32:03.953Z,20.30
2017-07-29T19:34:31.571Z,20.30
2017-07-29T19:37:00.006Z,20.10
2017-07-29T19:39:27.637Z,20.10
2017-07-29T19:41:55.248Z,20.10
2017-07-29T19:44:22.939Z,20.10
2017-07-29T19:46:50.551Z,20.00
2017-07-29T19:49:18.190Z,20.00
2017-07-29T19:51:45.802Z,20.00
2017-07-29T19:54:14.180Z,20.00
2017-07-29T19:56:42.592Z,19.90
2017-07-29T19:59:10.195Z,19.90
2017-07-29T20:01:37.826Z,19.90
2017-07-29T20:04:06.202Z,19.70
2017-07-29T20:06:33.811Z,19.60
2017-07-29T20:09:01.453Z,19.60
2017-07-29T20:11:29.873Z,19.60
2017-07-29T20:13:57.533Z,19.60
2017-07-29T20:16:25.135Z,19.60
2017-07-29T20:18:53.516Z,19.60
2017-07-29T20:21:21.175Z,19.50
2017-07-29T20:23:48.775Z,19.40
2017-07-29T20:26:16.421Z,19.30
2017-07-29T20:28:44.047Z,19.30
2017-07-29T20:31:11.675Z,19.20
2017-07-29T20:33:39.321Z,19.20
2017-07-29T20:36:06.920Z,19.10
2017-07-29T20:38:35.323Z,19.00
2017-07-29T20:41:02.932Z,18.90
2017-07-29T20:43:31.313Z,18.90
2017-07-29T20:45:58.958Z,18.90
2017-07-29T20:48:26.701Z,19.00
2017-07-29T20:50:55.116Z,19.00
2017-07-29T20:53:22.728Z,18.90
2017-07-29T20:55:50.342Z,19.00
2017-07-29T20:58:18.009Z,18.90
2017-07-29T21:00:45.638Z,18.80
2017-07-29T21:03:13.295Z,18.80
2017-07-29T21:05:40.917Z,18.80
2017-07-29T21:08:08.559Z,18.70
2017-07-29T21:10:36.980Z,18.70
2017-07-29T21:13:04.607Z,18.60
2017-07-29T21:15:32.248Z,18.60
2017-07-29T21:17:59.880Z,18.50
2017-07-29T21:20:27.544Z,18.50
2017-07-29T21:22:55.190Z,18.50
2017-07-29T21:25:22.799Z,18.40
2017-07-29T21:27:50.576Z,18.40
2017-07-29T21:30:18.962Z,18.30
2017-07-29T21:32:46.563Z,18.20
2017-07-29T21:35:14.996Z,18.30
2017-07-29T21:37:42.633Z,18.30
2017-07-29T21:40:10.355Z,18.30
2017-07-29T21:42:37.980Z,18.30
2017-07-29T21:45:05.603Z,18.30
2017-07-29T21:47:34.025Z,18.10
2017-07-29T21:50:01.661Z,18.10
2017-07-29T21:52:29.443Z,18.10
2017-07-29T21:54:57.079Z,18.00
2017-07-29T21:57:24.718Z,18.00
2017-07-29T21:59:53.804Z,18.00
2017-07-29T22:02:21.438Z,18.00
2017-07-29T22:04:49.105Z,18.00
2017-07-29T22:07:16.750Z,18.00
2017-07-29T22:09:44.392Z,17.90
2017-07-29T22:12:12.066Z,17.90
2017-07-29T22:14:39.742Z,17.80
2017-07-29T22:17:07.431Z,17.80
2017-07-29T22:19:35.238Z,17.80
2017-07-29T22:22:02.897Z,17.70
2017-07-29T22:24:30.644Z,17.70
2017-07-29T22:26:59.618Z,17.70
2017-07-29T22:29:27.369Z,17.70
2017-07-29T22:31:55.006Z,17.70
2017-07-29T22:34:22.635Z,17.60
2017-07-29T22:36:51.070Z,17.50
2017-07-29T22:39:18.710Z,17.50
2017-07-29T22:41:46.379Z,17.50
2017-07-29T22:44:14.022Z,17.50
2017-07-29T22:46:41.673Z,17.50
2017-07-29T22:49:09.337Z,17.40
2017-07-29T22:51:36.981Z,17.40
2017-07-29T22:54:05.403Z,17.30
2017-07-29T22:56:33.040Z,17.30
2017-07-29T22:59:00.677Z,17.30
2017-07-29T23:01:28.352Z,17.30
2017-07-29T23:03:56.004Z,17.30
2017-07-29T23:06:23.664Z,17.30
2017-07-29T23:08:51.295Z,17.30
2017-07-29T23:11:18.923Z,17.30
2017-07-29T23:13:46.584Z,17.20
2017-07-29T23:16:14.212Z,17.20
2017-07-29T23:18:41.870Z,17.20
2017-07-29T23:21:09.517Z,17.10
2017-07-29T23:23:37.157Z,17.10
2017-07-29T23:26:04.814Z,17.00
2017-07-29T23:28:32.448Z,17.00
2017-07-29T23:31:00.102Z,17.00
2017-07-29T23:33:27.789Z,16.90
2017-07-29T23:35:56.193Z,17.00
2017-07-29T23:38:23.858Z,16.90
2017-07-29T23:40:51.511Z,16.90
2017-07-29T23:43:19.174Z,16.80
2017-07-29T23:45:46.796Z,16.80
2017-07-29T23:48:14.425Z,16.80
2017-07-29T23:50:42.091Z,16.90
2017-07-29T23:53:09.830Z,16.80
2017-07-29T23:55:37.505Z,16.80
2017-07-29T23:58:05.150Z,16.80
